createdAt,value
2017-09-24T00:00:30.324Z,1009.2
2017-09-24T00:01:10.760Z,1009.15
2017-09-24T00:01:51.194Z,1009.12
2017-09-24T00:02:31.660Z,1009.13
2017-09-24T00:03:12.117Z,1009.11
2017-09-24T00:03:53.208Z,1009.1
2017-09-24T00:04:33.661Z,1009.11
2017-09-24T00:05:14.075Z,1009.13
2017-09-24T00:05:54.506Z,1009.08
2017-09-24T00:06:34.935Z,1009.07
2017-09-24T00:07:15.412Z,1009.07
2017-09-24T00:07:55.825Z,1009.12
2017-09-24T00:08:36.241Z,1009.06
2017-09-24T00:09:16.669Z,1009.09
2017-09-24T00:09:57.159Z,1009.11
2017-09-24T00:10:37.642Z,1009.1
2017-09-24T00:11:18.067Z,1009.08
2017-09-24T00:11:58.515Z,1009.1
2017-09-24T00:12:38.962Z,1009.09
2017-09-24T00:13:19.409Z,1009.11
2017-09-24T00:13:59.894Z,1009.11
2017-09-24T00:14:40.354Z,1009.09
2017-09-24T00:15:20.791Z,1009.09
2017-09-24T00:16:01.237Z,1009.12
2017-09-24T00:16:41.691Z,1009.16
2017-09-24T00:17:22.182Z,1009.08
2017-09-24T00:18:02.615Z,1009.12
2017-09-24T00:18:43.053Z,1009.12
2017-09-24T00:19:23.478Z,1009.12
2017-09-24T00:20:04.627Z,1009.11
2017-09-24T00:20:45.048Z,1009.15
2017-09-24T00:21:25.529Z,1009.14
2017-09-24T00:22:05.910Z,1009.12
2017-09-24T00:22:46.350Z,1009.15
2017-09-24T00:23:26.781Z,1009.15
2017-09-24T00:24:07.239Z,1009.1
2017-09-24T00:24:47.673Z,1009.1
2017-09-24T00:25:28.081Z,1009.09
2017-09-24T00:26:08.544Z,1009.15
2017-09-24T00:26:48.952Z,1009.13
2017-09-24T00:27:29.574Z,1009.13
2017-09-24T00:28:09.859Z,1009.12
2017-09-24T00:28:50.308Z,1009.09
2017-09-24T00:29:30.735Z,1009.18
2017-09-24T00:30:11.172Z,1009.11
2017-09-24T00:30:52.575Z,1009.13
2017-09-24T00:31:33.050Z,1009.09
2017-09-24T00:32:13.480Z,1009.11
2017-09-24T00:32:53.903Z,1009.09
2017-09-24T00:33:34.347Z,1009.08
2017-09-24T00:34:14.840Z,1009.09
2017-09-24T00:34:55.280Z,1009.09
2017-09-24T00:35:35.749Z,1009.09
2017-09-24T00:36:16.157Z,1009.09
2017-09-24T00:36:56.648Z,1009.07
2017-09-24T00:37:37.066Z,1009.06
2017-09-24T00:38:17.542Z,1009.03
2017-09-24T00:38:57.933Z,1009.04
2017-09-24T00:39:38.399Z,1009.05
2017-09-24T00:40:18.826Z,1009.04
2017-09-24T00:40:59.298Z,1009.02
2017-09-24T00:41:39.705Z,1009.03
2017-09-24T00:42:20.163Z,1009.03
2017-09-24T00:43:01.402Z,1009.01
2017-09-24T00:43:41.832Z,1009.03
2017-09-24T00:44:22.323Z,1008.96
2017-09-24T00:45:02.721Z,1008.98
2017-09-24T00:45:43.146Z,1008.96
2017-09-24T00:46:23.604Z,1009
2017-09-24T00:47:04.071Z,1009
2017-09-24T00:47:44.514Z,1008.97
2017-09-24T00:48:24.966Z,1008.97
2017-09-24T00:49:05.422Z,1008.95
2017-09-24T00:49:46.765Z,1008.92
2017-09-24T00:50:27.335Z,1008.94
2017-09-24T00:51:07.680Z,1008.95
2017-09-24T00:51:48.142Z,1008.94
2017-09-24T00:52:28.571Z,1008.92
2017-09-24T00:53:09.092Z,1008.94
2017-09-24T00:53:49.536Z,1008.94
2017-09-24T00:54:30.038Z,1008.93
2017-09-24T00:55:10.513Z,1008.94
2017-09-24T00:55:50.923Z,1008.95
2017-09-24T00:56:31.358Z,1008.95
2017-09-24T00:57:11.794Z,1008.95
2017-09-24T00:57:52.242Z,1008.96
2017-09-24T00:58:32.700Z,1008.97
2017-09-24T00:59:13.140Z,1008.95
2017-09-24T00:59:53.563Z,1008.95
2017-09-24T01:00:34.040Z,1008.93
2017-09-24T01:03:01.925Z,1008.93
2017-09-24T01:03:42.380Z,1008.92
2017-09-24T01:04:22.868Z,1008.88
2017-09-24T01:05:03.266Z,1008.9
2017-09-24T01:05:43.704Z,1008.9
2017-09-24T01:07:36.258Z,1008.87
2017-09-24T01:08:16.723Z,1008.86
2017-09-24T01:08:57.249Z,1008.83
2017-09-24T01:09:37.714Z,1008.84
2017-09-24T01:10:18.171Z,1008.87
2017-09-24T01:10:58.611Z,1008.82
2017-09-24T01:11:39.109Z,1008.85
2017-09-24T01:12:19.542Z,1008.8
2017-09-24T01:13:00.011Z,1008.84
2017-09-24T01:13:40.511Z,1008.84
2017-09-24T01:14:20.965Z,1008.82
2017-09-24T01:15:01.391Z,1008.83
2017-09-24T01:15:41.891Z,1008.77
2017-09-24T01:16:22.388Z,1008.8
2017-09-24T01:17:02.783Z,1008.79
2017-09-24T01:17:43.220Z,1008.78
2017-09-24T01:18:23.701Z,1008.78
2017-09-24T01:19:04.093Z,1008.78
2017-09-24T01:19:44.520Z,1008.74
2017-09-24T01:20:24.952Z,1008.76
2017-09-24T01:21:05.406Z,1008.78
2017-09-24T01:21:45.917Z,1008.82
2017-09-24T01:22:26.417Z,1008.79
2017-09-24T01:23:06.838Z,1008.8
2017-09-24T01:23:47.300Z,1008.82
2017-09-24T01:24:27.780Z,1008.79
2017-09-24T01:25:08.210Z,1008.81
2017-09-24T01:25:48.713Z,1008.81
2017-09-24T01:26:29.165Z,1008.81
2017-09-24T01:27:09.627Z,1008.78
2017-09-24T01:27:50.044Z,1008.81
2017-09-24T01:30:07.841Z,1008.8
2017-09-24T01:30:48.277Z,1008.8
2017-09-24T01:31:28.887Z,1008.82
2017-09-24T01:33:21.419Z,1008.77
2017-09-24T01:34:01.881Z,1008.8
2017-09-24T01:34:42.378Z,1008.78
2017-09-24T01:35:22.791Z,1008.76
2017-09-24T01:36:03.284Z,1008.81
2017-09-24T01:36:43.699Z,1008.77
2017-09-24T01:37:24.151Z,1008.77
2017-09-24T01:38:04.626Z,1008.74
2017-09-24T01:38:45.042Z,1008.76
2017-09-24T01:41:12.966Z,1008.77
2017-09-24T01:41:53.375Z,1008.76
2017-09-24T01:42:33.846Z,1008.72
2017-09-24T01:43:14.287Z,1008.7
2017-09-24T01:43:54.749Z,1008.76
2017-09-24T01:44:35.151Z,1008.78
2017-09-24T01:45:15.630Z,1008.75
2017-09-24T01:45:56.067Z,1008.75
2017-09-24T01:46:36.539Z,1008.75
2017-09-24T01:48:29.421Z,1008.77
2017-09-24T01:49:09.877Z,1008.77
2017-09-24T01:49:50.313Z,1008.8
2017-09-24T01:50:30.771Z,1008.79
2017-09-24T01:51:11.192Z,1008.79
2017-09-24T01:51:51.747Z,1008.82
2017-09-24T01:52:32.221Z,1008.77
2017-09-24T01:53:12.678Z,1008.79
2017-09-24T01:53:53.110Z,1008.82
2017-09-24T01:54:33.631Z,1008.79
2017-09-24T01:55:14.050Z,1008.79
2017-09-24T01:57:41.967Z,1008.85
2017-09-24T01:58:22.427Z,1008.86
2017-09-24T01:59:02.850Z,1008.88
2017-09-24T01:59:43.287Z,1008.85
2017-09-24T02:00:23.704Z,1008.88
2017-09-24T02:01:04.147Z,1008.85
2017-09-24T02:01:44.572Z,1008.85
2017-09-24T02:02:25.034Z,1008.84
2017-09-24T02:03:05.492Z,1008.87
2017-09-24T02:03:45.929Z,1008.85
2017-09-24T02:04:26.343Z,1008.84
2017-09-24T02:05:06.848Z,1008.83
2017-09-24T02:05:47.274Z,1008.84
2017-09-24T02:06:27.708Z,1008.84
2017-09-24T02:07:08.132Z,1008.85
2017-09-24T02:07:48.577Z,1008.85
2017-09-24T02:08:29.010Z,1008.82
2017-09-24T02:09:09.433Z,1008.81
2017-09-24T02:09:49.875Z,1008.84
2017-09-24T02:10:30.319Z,1008.86
2017-09-24T02:11:10.792Z,1008.83
2017-09-24T02:11:51.213Z,1008.84
2017-09-24T02:12:31.682Z,1008.86
2017-09-24T02:13:12.111Z,1008.88
2017-09-24T02:13:52.560Z,1008.83
2017-09-24T02:14:33.062Z,1008.89
2017-09-24T02:15:13.522Z,1008.89
2017-09-24T02:15:53.917Z,1008.89
2017-09-24T02:16:34.389Z,1008.89
2017-09-24T02:17:14.852Z,1008.92
2017-09-24T02:17:55.297Z,1008.89
2017-09-24T02:18:35.730Z,1008.91
2017-09-24T02:19:16.232Z,1008.91
2017-09-24T02:19:56.730Z,1008.9
2017-09-24T02:20:37.152Z,1008.88
2017-09-24T02:21:17.572Z,1008.88
2017-09-24T02:21:58.035Z,1008.92
2017-09-24T02:23:50.633Z,1008.88
2017-09-24T02:24:31.040Z,1008.93
2017-09-24T02:25:11.476Z,1008.93
2017-09-24T02:25:51.950Z,1008.89
2017-09-24T02:26:32.454Z,1008.91
2017-09-24T02:27:12.944Z,1008.93
2017-09-24T02:27:53.360Z,1008.93
2017-09-24T02:30:11.170Z,1008.91
2017-09-24T02:30:51.603Z,1008.89
2017-09-24T02:31:32.142Z,1008.92
2017-09-24T02:32:12.621Z,1008.93
2017-09-24T02:32:53.042Z,1008.93
2017-09-24T02:33:33.533Z,1008.9
2017-09-24T02:34:13.924Z,1008.91
2017-09-24T02:34:54.383Z,1008.95
2017-09-24T02:35:34.868Z,1008.92
2017-09-24T02:36:15.291Z,1008.93
2017-09-24T02:36:55.760Z,1008.91
2017-09-24T02:37:36.221Z,1008.91
2017-09-24T02:38:17.620Z,1008.93
2017-09-24T02:38:58.102Z,1008.89
2017-09-24T02:39:38.538Z,1008.9
2017-09-24T02:40:18.976Z,1008.86
2017-09-24T02:40:59.400Z,1008.89
2017-09-24T02:41:39.832Z,1008.89
2017-09-24T02:42:20.321Z,1008.9
2017-09-24T02:43:00.773Z,1008.88
2017-09-24T02:45:18.909Z,1008.9
2017-09-24T02:45:59.333Z,1008.9
2017-09-24T02:46:39.799Z,1008.92
2017-09-24T02:47:20.265Z,1008.95
2017-09-24T02:48:00.735Z,1008.91
2017-09-24T02:48:41.193Z,1008.92
2017-09-24T02:49:21.660Z,1008.91
2017-09-24T02:50:02.108Z,1008.94
2017-09-24T02:50:42.494Z,1008.92
2017-09-24T02:51:22.955Z,1008.92
2017-09-24T02:52:03.407Z,1008.91
2017-09-24T02:52:43.843Z,1008.89
2017-09-24T02:53:24.270Z,1008.91
2017-09-24T02:54:04.704Z,1008.9
2017-09-24T02:54:45.122Z,1008.9
2017-09-24T02:55:25.581Z,1008.88
2017-09-24T02:56:06.089Z,1008.92
2017-09-24T02:56:46.526Z,1008.9
2017-09-24T02:57:26.963Z,1008.88
2017-09-24T02:58:07.386Z,1008.9
2017-09-24T02:58:47.849Z,1008.89
2017-09-24T02:59:28.355Z,1008.91
2017-09-24T03:00:08.732Z,1008.86
2017-09-24T03:00:49.189Z,1008.88
2017-09-24T03:01:29.600Z,1008.85
2017-09-24T03:02:10.057Z,1008.85
2017-09-24T03:02:50.507Z,1008.84
2017-09-24T03:03:30.955Z,1008.89
2017-09-24T03:04:11.406Z,1008.85
2017-09-24T03:04:51.844Z,1008.84
2017-09-24T03:05:32.254Z,1008.86
2017-09-24T03:06:12.721Z,1008.83
2017-09-24T03:06:53.152Z,1008.82
2017-09-24T03:07:33.617Z,1008.86
2017-09-24T03:08:14.056Z,1008.85
2017-09-24T03:08:54.533Z,1008.84
2017-09-24T03:09:34.992Z,1008.84
2017-09-24T03:10:15.428Z,1008.85
2017-09-24T03:10:55.878Z,1008.82
2017-09-24T03:11:36.315Z,1008.84
2017-09-24T03:12:16.821Z,1008.88
2017-09-24T03:12:57.254Z,1008.85
2017-09-24T03:13:37.666Z,1008.85
2017-09-24T03:14:18.101Z,1008.87
2017-09-24T03:14:58.541Z,1008.86
2017-09-24T03:15:39.007Z,1008.84
2017-09-24T03:16:19.404Z,1008.88
2017-09-24T03:16:59.842Z,1008.88
2017-09-24T03:17:40.273Z,1008.89
2017-09-24T03:18:20.688Z,1008.88
2017-09-24T03:19:01.130Z,1008.9
2017-09-24T03:19:41.628Z,1008.87
2017-09-24T03:20:22.055Z,1008.87
2017-09-24T03:21:02.467Z,1008.87
2017-09-24T03:21:42.967Z,1008.89
2017-09-24T03:22:23.371Z,1008.89
2017-09-24T03:24:41.118Z,1008.89
2017-09-24T03:25:21.572Z,1008.89
2017-09-24T03:26:02.181Z,1008.9
2017-09-24T03:26:42.632Z,1008.87
2017-09-24T03:27:23.084Z,1008.85
2017-09-24T03:28:03.543Z,1008.87
2017-09-24T03:28:43.993Z,1008.85
2017-09-24T03:29:24.472Z,1008.83
2017-09-24T03:30:04.910Z,1008.82
2017-09-24T03:30:45.376Z,1008.84
2017-09-24T03:31:25.838Z,1008.85
2017-09-24T03:33:38.552Z,1008.83
2017-09-24T03:34:18.987Z,1008.83
2017-09-24T03:34:59.418Z,1008.85
2017-09-24T03:35:39.846Z,1008.83
2017-09-24T03:36:20.275Z,1008.86
2017-09-24T03:37:00.739Z,1008.84
2017-09-24T03:37:41.218Z,1008.81
2017-09-24T03:38:21.668Z,1008.82
2017-09-24T03:39:02.148Z,1008.84
2017-09-24T03:39:42.530Z,1008.84
2017-09-24T03:40:22.985Z,1008.84
2017-09-24T03:41:03.428Z,1008.86
2017-09-24T03:41:43.882Z,1008.83
2017-09-24T03:42:24.315Z,1008.91
2017-09-24T03:43:04.767Z,1008.83
2017-09-24T03:43:45.206Z,1008.88
2017-09-24T03:44:25.617Z,1008.87
2017-09-24T03:45:06.068Z,1008.87
2017-09-24T03:45:46.516Z,1008.85
2017-09-24T03:46:26.949Z,1008.84
2017-09-24T03:47:07.404Z,1008.83
2017-09-24T03:47:47.858Z,1008.82
2017-09-24T03:48:28.371Z,1008.85
2017-09-24T03:49:08.730Z,1008.82
2017-09-24T03:49:49.201Z,1008.82
2017-09-24T03:50:29.651Z,1008.84
2017-09-24T03:51:10.111Z,1008.81
2017-09-24T03:51:50.502Z,1008.81
2017-09-24T03:52:30.981Z,1008.84
2017-09-24T03:53:11.453Z,1008.84
2017-09-24T03:53:52.008Z,1008.85
2017-09-24T03:54:32.373Z,1008.86
2017-09-24T03:55:12.830Z,1008.86
2017-09-24T03:55:53.271Z,1008.88
2017-09-24T03:56:33.769Z,1008.88
2017-09-24T03:57:14.178Z,1008.9
2017-09-24T03:57:54.606Z,1008.88
2017-09-24T03:58:35.045Z,1008.91
2017-09-24T03:59:15.474Z,1008.91
2017-09-24T03:59:56.423Z,1008.88
2017-09-24T04:00:36.883Z,1008.94
2017-09-24T04:01:17.288Z,1008.92
2017-09-24T04:01:57.741Z,1008.9
2017-09-24T04:02:38.187Z,1008.89
2017-09-24T04:03:18.658Z,1008.93
2017-09-24T04:03:59.151Z,1008.89
2017-09-24T04:05:51.727Z,1008.89
2017-09-24T04:06:32.170Z,1008.9
2017-09-24T04:07:12.633Z,1008.9
2017-09-24T04:07:53.063Z,1008.93
2017-09-24T04:08:33.550Z,1008.92
2017-09-24T04:09:13.947Z,1008.9
2017-09-24T04:09:54.412Z,1008.92
2017-09-24T04:10:34.825Z,1008.89
2017-09-24T04:11:15.289Z,1008.93
2017-09-24T04:11:55.715Z,1008.92
2017-09-24T04:12:36.173Z,1008.96
2017-09-24T04:13:16.621Z,1008.93
2017-09-24T04:13:57.084Z,1008.93
2017-09-24T04:14:37.509Z,1008.94
2017-09-24T04:15:17.941Z,1008.96
2017-09-24T04:17:35.782Z,1008.96
2017-09-24T04:18:16.205Z,1008.96
2017-09-24T04:18:56.645Z,1009
2017-09-24T04:19:37.101Z,1008.98
2017-09-24T04:20:17.527Z,1008.96
2017-09-24T04:22:35.321Z,1009.03
2017-09-24T04:23:15.792Z,1009.02
2017-09-24T04:23:56.295Z,1009.01
2017-09-24T04:24:36.702Z,1009.05
2017-09-24T04:25:17.130Z,1009.04
2017-09-24T04:25:57.576Z,1009.04
2017-09-24T04:26:38.006Z,1009.05
2017-09-24T04:27:18.440Z,1009.04
2017-09-24T04:27:58.879Z,1009.06
2017-09-24T04:28:39.311Z,1009.05
2017-09-24T04:29:19.787Z,1009.01
2017-09-24T04:30:00.228Z,1009.02
2017-09-24T04:30:40.673Z,1009.04
2017-09-24T04:31:21.333Z,1009.05
2017-09-24T04:32:01.880Z,1009.06
2017-09-24T04:32:42.373Z,1009.08
2017-09-24T04:33:22.773Z,1009.09
2017-09-24T04:34:03.224Z,1009.03
2017-09-24T04:34:43.674Z,1009.11
2017-09-24T04:35:24.156Z,1009.06
2017-09-24T04:36:04.579Z,1009.07
2017-09-24T04:36:45.117Z,1009.04
2017-09-24T04:37:25.828Z,1009.03
2017-09-24T04:38:06.268Z,1009.08
2017-09-24T04:38:46.698Z,1009.07
2017-09-24T04:39:27.131Z,1009.09
2017-09-24T04:40:07.558Z,1009.07
2017-09-24T04:40:48.011Z,1009.1
2017-09-24T04:41:28.467Z,1009.11
2017-09-24T04:42:08.866Z,1009.12
2017-09-24T04:42:49.290Z,1009.15
2017-09-24T04:43:29.739Z,1009.11
2017-09-24T04:44:10.216Z,1009.12
2017-09-24T04:44:50.688Z,1009.08
2017-09-24T04:45:31.136Z,1009.12
2017-09-24T04:46:11.578Z,1009.1
2017-09-24T04:46:52.045Z,1009.16
2017-09-24T04:47:32.415Z,1009.17
2017-09-24T04:48:12.861Z,1009.16
2017-09-24T04:48:53.313Z,1009.16
2017-09-24T04:49:33.966Z,1009.19
2017-09-24T04:50:14.374Z,1009.17
2017-09-24T04:52:32.170Z,1009.21
2017-09-24T04:53:12.648Z,1009.22
2017-09-24T04:53:53.069Z,1009.25
2017-09-24T04:54:33.552Z,1009.29
2017-09-24T04:55:14.001Z,1009.3
2017-09-24T04:55:54.446Z,1009.28
2017-09-24T04:56:34.925Z,1009.33
2017-09-24T04:57:15.367Z,1009.32
2017-09-24T04:57:55.850Z,1009.31
2017-09-24T04:58:36.878Z,1009.34
2017-09-24T04:59:17.286Z,1009.3
2017-09-24T04:59:57.729Z,1009.31
2017-09-24T05:00:38.180Z,1009.29
2017-09-24T05:01:18.658Z,1009.31
2017-09-24T05:01:59.097Z,1009.32
2017-09-24T05:02:39.494Z,1009.28
2017-09-24T05:03:19.925Z,1009.29
2017-09-24T05:04:00.371Z,1009.29
2017-09-24T05:04:40.806Z,1009.32
2017-09-24T05:05:21.234Z,1009.31
2017-09-24T05:06:01.687Z,1009.32
2017-09-24T05:06:42.113Z,1009.33
2017-09-24T05:07:22.576Z,1009.32
2017-09-24T05:08:03.063Z,1009.32
2017-09-24T05:08:43.499Z,1009.32
2017-09-24T05:09:23.950Z,1009.3
2017-09-24T05:10:04.420Z,1009.34
2017-09-24T05:10:44.985Z,1009.35
2017-09-24T05:11:25.443Z,1009.34
2017-09-24T05:12:05.885Z,1009.32
2017-09-24T05:12:46.322Z,1009.32
2017-09-24T05:13:26.755Z,1009.35
2017-09-24T05:14:07.224Z,1009.34
2017-09-24T05:14:47.688Z,1009.29
2017-09-24T05:15:28.111Z,1009.31
2017-09-24T05:16:08.554Z,1009.32
2017-09-24T05:16:49.017Z,1009.3
2017-09-24T05:17:29.476Z,1009.3
2017-09-24T05:18:09.928Z,1009.33
2017-09-24T05:18:50.387Z,1009.32
2017-09-24T05:19:30.896Z,1009.34
2017-09-24T05:20:11.385Z,1009.31
2017-09-24T05:20:51.830Z,1009.3
2017-09-24T05:21:32.307Z,1009.31
2017-09-24T05:22:12.742Z,1009.29
2017-09-24T05:22:53.216Z,1009.33
2017-09-24T05:23:33.600Z,1009.33
2017-09-24T05:24:14.082Z,1009.34
2017-09-24T05:24:54.512Z,1009.36
2017-09-24T05:25:34.958Z,1009.35
2017-09-24T05:26:15.394Z,1009.34
2017-09-24T05:26:55.854Z,1009.35
2017-09-24T05:28:48.395Z,1009.36
2017-09-24T05:29:28.910Z,1009.37
2017-09-24T05:30:09.342Z,1009.38
2017-09-24T05:30:49.803Z,1009.33
2017-09-24T05:31:30.244Z,1009.37
2017-09-24T05:33:27.822Z,1009.34
2017-09-24T05:34:08.267Z,1009.36
2017-09-24T05:34:48.708Z,1009.34
2017-09-24T05:35:29.182Z,1009.35
2017-09-24T05:36:09.744Z,1009.35
2017-09-24T05:36:50.179Z,1009.39
2017-09-24T05:37:30.702Z,1009.35
2017-09-24T05:38:11.167Z,1009.36
2017-09-24T05:38:51.708Z,1009.4
2017-09-24T05:39:32.378Z,1009.41
2017-09-24T05:40:12.948Z,1009.4
2017-09-24T05:40:53.545Z,1009.44
2017-09-24T05:41:34.113Z,1009.41
2017-09-24T05:42:14.623Z,1009.43
2017-09-24T05:42:55.148Z,1009.43
2017-09-24T05:43:35.702Z,1009.43
2017-09-24T05:44:16.229Z,1009.43
2017-09-24T05:44:56.944Z,1009.45
2017-09-24T05:45:37.375Z,1009.46
2017-09-24T05:46:17.972Z,1009.45
2017-09-24T05:46:58.547Z,1009.44
2017-09-24T05:47:39.100Z,1009.46
2017-09-24T05:48:19.998Z,1009.48
2017-09-24T05:49:00.540Z,1009.45
2017-09-24T05:49:40.973Z,1009.52
2017-09-24T05:50:21.447Z,1009.5
2017-09-24T05:51:01.915Z,1009.51
2017-09-24T05:51:42.369Z,1009.53
2017-09-24T05:52:22.849Z,1009.56
2017-09-24T05:53:03.334Z,1009.56
2017-09-24T05:53:43.826Z,1009.59
2017-09-24T05:54:24.259Z,1009.59
2017-09-24T05:55:04.681Z,1009.6
2017-09-24T05:55:45.134Z,1009.62
2017-09-24T05:56:25.597Z,1009.6
2017-09-24T05:57:06.040Z,1009.63
2017-09-24T05:57:46.514Z,1009.63
2017-09-24T05:58:27.028Z,1009.62
2017-09-24T05:59:07.408Z,1009.61
2017-09-24T05:59:47.867Z,1009.61
2017-09-24T06:00:28.315Z,1009.63
2017-09-24T06:01:08.795Z,1009.65
2017-09-24T06:03:26.630Z,1009.63
2017-09-24T06:04:07.120Z,1009.64
2017-09-24T06:04:47.583Z,1009.62
2017-09-24T06:05:28.016Z,1009.65
2017-09-24T06:06:08.458Z,1009.63
2017-09-24T06:06:48.884Z,1009.67
2017-09-24T06:07:29.335Z,1009.66
2017-09-24T06:08:09.870Z,1009.68
2017-09-24T06:08:50.456Z,1009.61
2017-09-24T06:09:30.763Z,1009.63
2017-09-24T06:10:11.225Z,1009.63
2017-09-24T06:10:51.686Z,1009.64
2017-09-24T06:11:32.111Z,1009.64
2017-09-24T06:12:12.565Z,1009.62
2017-09-24T06:12:53.039Z,1009.63
2017-09-24T06:13:33.472Z,1009.62
2017-09-24T06:14:13.942Z,1009.63
2017-09-24T06:14:54.379Z,1009.65
2017-09-24T06:15:34.804Z,1009.64
2017-09-24T06:18:02.703Z,1009.67
2017-09-24T06:18:43.170Z,1009.71
2017-09-24T06:19:23.597Z,1009.71
2017-09-24T06:20:04.059Z,1009.68
2017-09-24T06:20:44.625Z,1009.7
2017-09-24T06:21:25.033Z,1009.7
2017-09-24T06:22:05.491Z,1009.71
2017-09-24T06:22:45.894Z,1009.73
2017-09-24T06:23:26.340Z,1009.73
2017-09-24T06:24:06.882Z,1009.75
2017-09-24T06:24:47.296Z,1009.77
2017-09-24T06:25:27.726Z,1009.77
2017-09-24T06:26:08.162Z,1009.76
2017-09-24T06:26:48.618Z,1009.76
2017-09-24T06:27:29.089Z,1009.81
2017-09-24T06:28:09.496Z,1009.85
2017-09-24T06:28:49.938Z,1009.84
2017-09-24T06:29:30.371Z,1009.83
2017-09-24T06:30:10.840Z,1009.84
2017-09-24T06:30:51.306Z,1009.87
2017-09-24T06:31:31.747Z,1009.88
2017-09-24T06:32:12.172Z,1009.88
2017-09-24T06:32:52.634Z,1009.91
2017-09-24T06:33:33.208Z,1009.9
2017-09-24T06:34:13.731Z,1009.9
2017-09-24T06:34:54.248Z,1009.93
2017-09-24T06:35:34.695Z,1009.92
2017-09-24T06:36:15.145Z,1009.96
2017-09-24T06:36:55.575Z,1009.95
2017-09-24T06:37:36.005Z,1009.96
2017-09-24T06:38:16.447Z,1009.95
2017-09-24T06:38:57.795Z,1010.02
2017-09-24T06:39:38.225Z,1010.01
2017-09-24T06:40:18.685Z,1010.04
2017-09-24T06:40:59.109Z,1010.03
2017-09-24T06:43:27.048Z,1010.03
2017-09-24T06:44:07.529Z,1010.06
2017-09-24T06:44:47.917Z,1010.09
2017-09-24T06:45:28.347Z,1010.1
2017-09-24T06:46:08.779Z,1010.06
2017-09-24T06:46:49.249Z,1010.11
2017-09-24T06:47:29.639Z,1010.09
2017-09-24T06:48:10.095Z,1010.09
2017-09-24T06:48:50.535Z,1010.1
2017-09-24T06:49:31.007Z,1010.08
2017-09-24T06:50:11.468Z,1010.1
2017-09-24T06:50:51.972Z,1010.12
2017-09-24T06:51:32.431Z,1010.13
2017-09-24T06:52:12.851Z,1010.11
2017-09-24T06:52:53.301Z,1010.13
2017-09-24T06:53:33.778Z,1010.11
2017-09-24T06:54:14.208Z,1010.13
2017-09-24T06:54:54.664Z,1010.11
2017-09-24T06:55:35.099Z,1010.18
2017-09-24T06:56:15.560Z,1010.2
2017-09-24T06:56:55.974Z,1010.16
2017-09-24T06:57:36.497Z,1010.23
2017-09-24T06:59:49.203Z,1010.24
2017-09-24T07:00:29.607Z,1010.25
2017-09-24T07:01:10.091Z,1010.31
2017-09-24T07:01:50.540Z,1010.32
2017-09-24T07:02:30.986Z,1010.32
2017-09-24T07:04:23.556Z,1010.31
2017-09-24T07:05:04.061Z,1010.29
2017-09-24T07:05:44.435Z,1010.27
2017-09-24T07:06:24.893Z,1010.3
2017-09-24T07:07:05.335Z,1010.26
2017-09-24T07:07:45.806Z,1010.28
2017-09-24T07:08:26.217Z,1010.28
2017-09-24T07:09:06.654Z,1010.32
2017-09-24T07:09:47.082Z,1010.34
2017-09-24T07:10:27.509Z,1010.32
2017-09-24T07:11:08.241Z,1010.34
2017-09-24T07:11:48.651Z,1010.33
2017-09-24T07:12:29.090Z,1010.36
2017-09-24T07:13:09.521Z,1010.36
2017-09-24T07:13:49.941Z,1010.4
2017-09-24T07:14:30.381Z,1010.4
2017-09-24T07:15:10.835Z,1010.4
2017-09-24T07:15:51.250Z,1010.42
2017-09-24T07:16:31.686Z,1010.46
2017-09-24T07:17:12.141Z,1010.48
2017-09-24T07:17:52.571Z,1010.5
2017-09-24T07:18:33.012Z,1010.54
2017-09-24T07:19:13.485Z,1010.57
2017-09-24T07:19:53.906Z,1010.54
2017-09-24T07:21:51.620Z,1010.55
2017-09-24T07:22:32.756Z,1010.59
2017-09-24T07:23:13.212Z,1010.57
2017-09-24T07:23:53.681Z,1010.6
2017-09-24T07:24:34.114Z,1010.61
2017-09-24T07:25:14.585Z,1010.61
2017-09-24T07:25:55.018Z,1010.62
2017-09-24T07:26:35.491Z,1010.63
2017-09-24T07:27:15.928Z,1010.64
2017-09-24T07:27:56.353Z,1010.67
2017-09-24T07:28:36.868Z,1010.65
2017-09-24T07:29:17.213Z,1010.67
2017-09-24T07:29:57.673Z,1010.65
2017-09-24T07:30:38.146Z,1010.65
2017-09-24T07:31:18.616Z,1010.66
2017-09-24T07:31:59.053Z,1010.69
2017-09-24T07:32:39.510Z,1010.7
2017-09-24T07:33:19.953Z,1010.69
2017-09-24T07:34:00.411Z,1010.73
2017-09-24T07:34:40.866Z,1010.73
2017-09-24T07:35:21.293Z,1010.82
2017-09-24T07:36:01.762Z,1010.76
2017-09-24T07:36:42.149Z,1010.81
2017-09-24T07:37:22.581Z,1010.81
2017-09-24T07:39:15.149Z,1010.63
2017-09-24T07:39:55.608Z,1010.56
2017-09-24T07:40:36.075Z,1010.61
2017-09-24T07:41:16.540Z,1010.59
2017-09-24T07:41:57.942Z,1010.63
2017-09-24T07:42:38.388Z,1010.66
2017-09-24T07:43:18.842Z,1010.73
2017-09-24T07:43:59.257Z,1010.85
2017-09-24T07:44:39.738Z,1010.96
2017-09-24T07:45:20.155Z,1010.95
2017-09-24T07:46:00.629Z,1011.01
2017-09-24T07:48:18.495Z,1010.97
2017-09-24T07:48:58.919Z,1011.02
2017-09-24T07:49:39.365Z,1011
2017-09-24T07:50:19.820Z,1011.03
2017-09-24T07:51:00.268Z,1010.96
2017-09-24T07:51:40.700Z,1010.99
2017-09-24T07:52:21.154Z,1010.99
2017-09-24T07:53:01.611Z,1010.97
2017-09-24T07:53:42.040Z,1011.03
2017-09-24T07:54:22.473Z,1011.09
2017-09-24T07:55:02.910Z,1011.16
2017-09-24T07:55:43.366Z,1011.11
2017-09-24T07:57:35.923Z,1010.72
2017-09-24T07:58:16.402Z,1010.8
2017-09-24T07:58:56.889Z,1010.68
2017-09-24T07:59:37.304Z,1010.7
2017-09-24T08:00:17.772Z,1010.68
2017-09-24T08:00:58.175Z,1010.92
2017-09-24T08:01:38.657Z,1010.77
2017-09-24T08:03:36.577Z,1010.85
2017-09-24T08:04:17.116Z,1010.65
2017-09-24T08:04:57.522Z,1010.61
2017-09-24T08:05:37.942Z,1010.61
2017-09-24T08:06:18.345Z,1010.79
2017-09-24T08:06:58.777Z,1010.76
2017-09-24T08:07:39.233Z,1010.83
2017-09-24T08:08:19.739Z,1010.94
2017-09-24T08:09:00.178Z,1010.79
2017-09-24T08:09:40.601Z,1010.8
2017-09-24T08:10:21.173Z,1010.88
2017-09-24T08:11:01.587Z,1010.91
2017-09-24T08:11:42.035Z,1010.93
2017-09-24T08:12:22.496Z,1011.02
2017-09-24T08:13:02.955Z,1010.84
2017-09-24T08:13:43.428Z,1010.85
2017-09-24T08:14:23.872Z,1011.01
2017-09-24T08:15:04.356Z,1010.98
2017-09-24T08:15:44.789Z,1010.95
2017-09-24T08:16:25.244Z,1010.89
2017-09-24T08:18:17.787Z,1010.89
2017-09-24T08:18:58.259Z,1010.92
2017-09-24T08:19:38.728Z,1010.86
2017-09-24T08:20:19.197Z,1011
2017-09-24T08:20:59.645Z,1010.98
2017-09-24T08:21:40.128Z,1011.02
2017-09-24T08:23:37.924Z,1010.89
2017-09-24T08:24:18.382Z,1011.04
2017-09-24T08:24:58.833Z,1011.03
2017-09-24T08:25:39.321Z,1011.06
2017-09-24T08:26:20.581Z,1010.92
2017-09-24T08:27:01.050Z,1010.82
2017-09-24T08:27:41.529Z,1010.86
2017-09-24T08:28:21.977Z,1010.81
2017-09-24T08:29:02.430Z,1010.81
2017-09-24T08:29:42.892Z,1010.82
2017-09-24T08:32:10.847Z,1010.84
2017-09-24T08:32:51.325Z,1010.88
2017-09-24T08:33:31.754Z,1010.87
2017-09-24T08:34:12.169Z,1010.89
2017-09-24T08:34:52.618Z,1010.85
2017-09-24T08:35:33.076Z,1010.88
2017-09-24T08:36:13.525Z,1010.87
2017-09-24T08:36:53.998Z,1010.91
2017-09-24T08:37:34.570Z,1010.94
2017-09-24T08:38:15.010Z,1010.94
2017-09-24T08:38:55.447Z,1010.96
2017-09-24T08:39:36.048Z,1011.06
2017-09-24T08:42:03.891Z,1011.27
2017-09-24T08:42:44.319Z,1011.24
2017-09-24T08:43:24.801Z,1011.2
2017-09-24T08:44:05.300Z,1011.25
2017-09-24T08:44:46.691Z,1011.3
2017-09-24T08:45:27.200Z,1011.44
2017-09-24T08:46:07.609Z,1011.46
2017-09-24T08:46:48.058Z,1011.55
2017-09-24T08:47:28.503Z,1011.55
2017-09-24T08:48:08.980Z,1011.59
2017-09-24T08:50:36.946Z,1011.61
2017-09-24T08:51:17.392Z,1011.64
2017-09-24T08:51:57.907Z,1011.45
2017-09-24T08:52:38.354Z,1011.28
2017-09-24T08:53:18.817Z,1011.25
2017-09-24T08:53:59.273Z,1011.27
2017-09-24T08:54:39.735Z,1011.21
2017-09-24T08:55:20.143Z,1011.22
2017-09-24T08:57:17.804Z,1011.25
2017-09-24T08:57:58.279Z,1011.21
2017-09-24T08:58:38.750Z,1011.29
2017-09-24T08:59:19.230Z,1011.21
2017-09-24T08:59:59.659Z,1011.2
2017-09-24T09:00:40.153Z,1011.21
2017-09-24T09:01:20.664Z,1011.22
2017-09-24T09:02:01.165Z,1011.27